sensor_id;sensor_type;location;lat;lon;timestamp;P1;durP1;ratioP1;P2;durP2;ratioP2
61015;SDS011;46902;52.920;6.536;2022-09-13T00:00:49;13.75;;;11.85;;
61015;SDS011;46902;52.920;6.536;2022-09-13T00:03:16;14.98;;;11.73;;
61015;SDS011;46902;52.920;6.536;2022-09-13T00:05:42;15.77;;;12.25;;
61015;SDS011;46902;52.920;6.536;2022-09-13T00:08:08;13.70;;;12.18;;
61015;SDS011;46902;52.920;6.536;2022-09-13T00:10:34;17.52;;;13.82;;
61015;SDS011;46902;52.920;6.536;2022-09-13T00:13:01;15.43;;;13.32;;
61015;SDS011;46902;52.920;6.536;2022-09-13T00:15:27;16.85;;;12.75;;
61015;SDS011;46902;52.920;6.536;2022-09-13T00:17:53;16.33;;;13.57;;
61015;SDS011;46902;52.920;6.536;2022-09-13T00:20:19;15.95;;;13.00;;
61015;SDS011;46902;52.920;6.536;2022-09-13T00:22:45;13.60;;;12.20;;
61015;SDS011;46902;52.920;6.536;2022-09-13T00:25:11;14.35;;;12.05;;
61015;SDS011;46902;52.920;6.536;2022-09-13T00:27:36;13.20;;;11.80;;
61015;SDS011;46902;52.920;6.536;2022-09-13T00:30:03;14.85;;;12.05;;
61015;SDS011;46902;52.920;6.536;2022-09-13T00:32:30;14.13;;;12.30;;
61015;SDS011;46902;52.920;6.536;2022-09-13T00:34:56;15.07;;;12.00;;
61015;SDS011;46902;52.920;6.536;2022-09-13T00:37:22;13.35;;;11.25;;
61015;SDS011;46902;52.920;6.536;2022-09-13T00:39:47;15.40;;;11.77;;
61015;SDS011;46902;52.920;6.536;2022-09-13T00:42:13;16.48;;;12.38;;
61015;SDS011;46902;52.920;6.536;2022-09-13T00:44:52;13.82;;;11.60;;
61015;SDS011;46902;52.920;6.536;2022-09-13T00:47:30;13.13;;;11.73;;
61015;SDS011;46902;52.920;6.536;2022-09-13T00:50:02;13.85;;;12.10;;
61015;SDS011;46902;52.920;6.536;2022-09-13T00:52:35;13.65;;;12.25;;
61015;SDS011;46902;52.920;6.536;2022-09-13T00:55:05;14.90;;;12.52;;
61015;SDS011;46902;52.920;6.536;2022-09-13T01:02:37;14.35;;;12.52;;
61015;SDS011;46902;52.920;6.536;2022-09-13T01:05:05;16.63;;;13.85;;
61015;SDS011;46902;52.920;6.536;2022-09-13T01:07:32;14.15;;;12.70;;
61015;SDS011;46902;52.920;6.536;2022-09-13T01:09:58;14.98;;;12.48;;
61015;SDS011;46902;52.920;6.536;2022-09-13T01:15:17;15.82;;;13.75;;
61015;SDS011;46902;52.920;6.536;2022-09-13T01:17:43;14.57;;;12.93;;
61015;SDS011;46902;52.920;6.536;2022-09-13T01:20:09;16.50;;;13.23;;
61015;SDS011;46902;52.920;6.536;2022-09-13T01:28:18;17.90;;;14.85;;
61015;SDS011;46902;52.920;6.536;2022-09-13T01:31:04;19.77;;;15.88;;
61015;SDS011;46902;52.920;6.536;2022-09-13T01:36:33;17.08;;;15.20;;
61015;SDS011;46902;52.920;6.536;2022-09-13T01:39:31;18.23;;;15.75;;
61015;SDS011;46902;52.920;6.536;2022-09-13T01:45:11;19.40;;;16.05;;
61015;SDS011;46902;52.920;6.536;2022-09-13T01:53:18;20.17;;;16.90;;
61015;SDS011;46902;52.920;6.536;2022-09-13T01:56:01;20.63;;;16.83;;
61015;SDS011;46902;52.920;6.536;2022-09-13T02:01:20;19.65;;;17.45;;
61015;SDS011;46902;52.920;6.536;2022-09-13T02:03:54;19.98;;;17.30;;
61015;SDS011;46902;52.920;6.536;2022-09-13T02:06:44;22.60;;;18.92;;
61015;SDS011;46902;52.920;6.536;2022-09-13T02:09:15;21.35;;;18.48;;
61015;SDS011;46902;52.920;6.536;2022-09-13T02:11:47;24.20;;;19.20;;
61015;SDS011;46902;52.920;6.536;2022-09-13T02:17:00;23.40;;;19.55;;
61015;SDS011;46902;52.920;6.536;2022-09-13T02:22:03;23.35;;;20.55;;
61015;SDS011;46902;52.920;6.536;2022-09-13T02:24:32;23.35;;;20.13;;
61015;SDS011;46902;52.920;6.536;2022-09-13T02:27:05;21.98;;;18.90;;
61015;SDS011;46902;52.920;6.536;2022-09-13T02:29:35;24.35;;;20.33;;
61015;SDS011;46902;52.920;6.536;2022-09-13T02:34:37;24.97;;;20.20;;
61015;SDS011;46902;52.920;6.536;2022-09-13T02:37:06;25.38;;;20.38;;
61015;SDS011;46902;52.920;6.536;2022-09-13T02:39:35;22.42;;;19.33;;
61015;SDS011;46902;52.920;6.536;2022-09-13T02:42:16;23.65;;;19.55;;
61015;SDS011;46902;52.920;6.536;2022-09-13T02:44:50;25.23;;;19.95;;
61015;SDS011;46902;52.920;6.536;2022-09-13T02:47:22;24.40;;;20.35;;
61015;SDS011;46902;52.920;6.536;2022-09-13T02:52:41;24.52;;;21.02;;
61015;SDS011;46902;52.920;6.536;2022-09-13T02:58:13;23.85;;;19.80;;
61015;SDS011;46902;52.920;6.536;2022-09-13T03:00:54;24.52;;;21.52;;
61015;SDS011;46902;52.920;6.536;2022-09-13T03:03:20;26.67;;;20.45;;
61015;SDS011;46902;52.920;6.536;2022-09-13T03:05:46;26.25;;;20.90;;
61015;SDS011;46902;52.920;6.536;2022-09-13T03:08:12;23.08;;;18.92;;
61015;SDS011;46902;52.920;6.536;2022-09-13T03:10:43;26.48;;;20.90;;
61015;SDS011;46902;52.920;6.536;2022-09-13T03:13:42;20.80;;;17.77;;
61015;SDS011;46902;52.920;6.536;2022-09-13T03:16:32;19.75;;;17.52;;
61015;SDS011;46902;52.920;6.536;2022-09-13T03:19:16;22.52;;;18.65;;
61015;SDS011;46902;52.920;6.536;2022-09-13T03:27:34;22.58;;;17.30;;
61015;SDS011;46902;52.920;6.536;2022-09-13T03:30:03;18.98;;;15.98;;
61015;SDS011;46902;52.920;6.536;2022-09-13T03:38:04;17.98;;;14.93;;
61015;SDS011;46902;52.920;6.536;2022-09-13T03:40:47;16.92;;;14.10;;
61015;SDS011;46902;52.920;6.536;2022-09-13T03:45:52;19.50;;;14.70;;
61015;SDS011;46902;52.920;6.536;2022-09-13T03:48:22;17.27;;;13.88;;
61015;SDS011;46902;52.920;6.536;2022-09-13T03:50:49;16.80;;;14.13;;
61015;SDS011;46902;52.920;6.536;2022-09-13T03:53:17;21.13;;;13.98;;
61015;SDS011;46902;52.920;6.536;2022-09-13T03:55:46;18.03;;;14.47;;
61015;SDS011;46902;52.920;6.536;2022-09-13T03:58:13;17.13;;;14.13;;
61015;SDS011;46902;52.920;6.536;2022-09-13T04:00:40;14.13;;;12.38;;
61015;SDS011;46902;52.920;6.536;2022-09-13T04:03:07;15.38;;;12.40;;
61015;SDS011;46902;52.920;6.536;2022-09-13T04:05:33;15.05;;;12.35;;
61015;SDS011;46902;52.920;6.536;2022-09-13T04:07:59;13.57;;;11.27;;
61015;SDS011;46902;52.920;6.536;2022-09-13T04:10:26;14.70;;;11.55;;
61015;SDS011;46902;52.920;6.536;2022-09-13T04:12:53;13.95;;;11.50;;
61015;SDS011;46902;52.920;6.536;2022-09-13T04:15:18;13.23;;;10.88;;
61015;SDS011;46902;52.920;6.536;2022-09-13T04:17:44;13.25;;;11.55;;
61015;SDS011;46902;52.920;6.536;2022-09-13T04:20:10;12.10;;;10.65;;
61015;SDS011;46902;52.920;6.536;2022-09-13T04:22:35;12.30;;;10.23;;
61015;SDS011;46902;52.920;6.536;2022-09-13T04:25:01;12.80;;;10.38;;
61015;SDS011;46902;52.920;6.536;2022-09-13T04:27:27;13.40;;;11.13;;
61015;SDS011;46902;52.920;6.536;2022-09-13T04:29:53;15.27;;;11.45;;
61015;SDS011;46902;52.920;6.536;2022-09-13T04:32:18;15.57;;;10.15;;
61015;SDS011;46902;52.920;6.536;2022-09-13T04:34:44;16.27;;;11.55;;
61015;SDS011;46902;52.920;6.536;2022-09-13T04:37:11;13.57;;;11.02;;
61015;SDS011;46902;52.920;6.536;2022-09-13T04:39:37;11.65;;;9.95;;
61015;SDS011;46902;52.920;6.536;2022-09-13T04:42:03;16.00;;;10.85;;
61015;SDS011;46902;52.920;6.536;2022-09-13T04:44:29;13.52;;;10.10;;
61015;SDS011;46902;52.920;6.536;2022-09-13T04:46:55;15.40;;;10.70;;
61015;SDS011;46902;52.920;6.536;2022-09-13T04:49:21;12.57;;;10.13;;
61015;SDS011;46902;52.920;6.536;2022-09-13T04:51:46;12.32;;;9.93;;
61015;SDS011;46902;52.920;6.536;2022-09-13T04:54:12;13.32;;;10.02;;
61015;SDS011;46902;52.920;6.536;2022-09-13T04:56:38;14.35;;;10.40;;
61015;SDS011;46902;52.920;6.536;2022-09-13T04:59:04;14.27;;;11.10;;
61015;SDS011;46902;52.920;6.536;2022-09-13T05:01:31;13.98;;;10.55;;
61015;SDS011;46902;52.920;6.536;2022-09-13T05:03:56;11.98;;;9.80;;
61015;SDS011;46902;52.920;6.536;2022-09-13T05:06:22;13.00;;;10.02;;
61015;SDS011;46902;52.920;6.536;2022-09-13T05:08:51;15.32;;;10.13;;
61015;SDS011;46902;52.920;6.536;2022-09-13T05:11:19;11.70;;;9.13;;
61015;SDS011;46902;52.920;6.536;2022-09-13T05:13:50;14.40;;;9.85;;
61015;SDS011;46902;52.920;6.536;2022-09-13T05:16:17;12.45;;;9.05;;
61015;SDS011;46902;52.920;6.536;2022-09-13T05:18:42;14.73;;;8.93;;
61015;SDS011;46902;52.920;6.536;2022-09-13T05:21:08;11.68;;;8.85;;
61015;SDS011;46902;52.920;6.536;2022-09-13T05:23:33;15.52;;;9.23;;
61015;SDS011;46902;52.920;6.536;2022-09-13T05:26:00;10.98;;;9.10;;
61015;SDS011;46902;52.920;6.536;2022-09-13T05:28:29;9.82;;;8.27;;
61015;SDS011;46902;52.920;6.536;2022-09-13T05:30:56;10.23;;;7.97;;
61015;SDS011;46902;52.920;6.536;2022-09-13T05:33:28;10.55;;;8.18;;
61015;SDS011;46902;52.920;6.536;2022-09-13T05:35:55;10.65;;;7.43;;
61015;SDS011;46902;52.920;6.536;2022-09-13T05:38:21;9.35;;;7.60;;
61015;SDS011;46902;52.920;6.536;2022-09-13T05:40:47;10.15;;;6.97;;
61015;SDS011;46902;52.920;6.536;2022-09-13T05:43:25;10.38;;;7.63;;
61015;SDS011;46902;52.920;6.536;2022-09-13T05:48:37;9.30;;;6.80;;
61015;SDS011;46902;52.920;6.536;2022-09-13T05:51:07;11.27;;;7.85;;
61015;SDS011;46902;52.920;6.536;2022-09-13T05:53:35;9.68;;;7.45;;
61015;SDS011;46902;52.920;6.536;2022-09-13T05:56:03;11.30;;;5.53;;
61015;SDS011;46902;52.920;6.536;2022-09-13T05:58:33;9.68;;;5.78;;
61015;SDS011;46902;52.920;6.536;2022-09-13T06:00:59;8.90;;;5.63;;
61015;SDS011;46902;52.920;6.536;2022-09-13T06:03:25;10.23;;;5.50;;
61015;SDS011;46902;52.920;6.536;2022-09-13T06:05:55;7.30;;;4.25;;
61015;SDS011;46902;52.920;6.536;2022-09-13T06:08:21;6.30;;;3.53;;
61015;SDS011;46902;52.920;6.536;2022-09-13T06:13:23;9.77;;;3.28;;
61015;SDS011;46902;52.920;6.536;2022-09-13T06:15:50;6.22;;;3.00;;
61015;SDS011;46902;52.920;6.536;2022-09-13T06:18:16;6.80;;;2.50;;
61015;SDS011;46902;52.920;6.536;2022-09-13T06:20:43;6.50;;;3.13;;
61015;SDS011;46902;52.920;6.536;2022-09-13T06:23:09;8.77;;;2.90;;
61015;SDS011;46902;52.920;6.536;2022-09-13T06:25:34;5.43;;;2.45;;
61015;SDS011;46902;52.920;6.536;2022-09-13T06:28:00;4.80;;;2.20;;
61015;SDS011;46902;52.920;6.536;2022-09-13T06:30:25;4.78;;;2.17;;
61015;SDS011;46902;52.920;6.536;2022-09-13T06:32:51;4.78;;;2.25;;
61015;SDS011;46902;52.920;6.536;2022-09-13T06:35:19;5.80;;;2.22;;
61015;SDS011;46902;52.920;6.536;2022-09-13T06:37:45;6.15;;;2.22;;
61015;SDS011;46902;52.920;6.536;2022-09-13T06:40:10;8.95;;;2.20;;
61015;SDS011;46902;52.920;6.536;2022-09-13T06:42:37;7.97;;;2.85;;
61015;SDS011;46902;52.920;6.536;2022-09-13T06:45:03;5.88;;;1.80;;
61015;SDS011;46902;52.920;6.536;2022-09-13T06:47:30;5.45;;;1.92;;
61015;SDS011;46902;52.920;6.536;2022-09-13T06:49:56;6.00;;;2.08;;
61015;SDS011;46902;52.920;6.536;2022-09-13T06:52:22;6.13;;;2.30;;
61015;SDS011;46902;52.920;6.536;2022-09-13T06:54:48;5.65;;;2.10;;
61015;SDS011;46902;52.920;6.536;2022-09-13T06:57:14;6.07;;;2.05;;
61015;SDS011;46902;52.920;6.536;2022-09-13T06:59:40;5.70;;;2.10;;
61015;SDS011;46902;52.920;6.536;2022-09-13T07:02:05;6.63;;;1.88;;
61015;SDS011;46902;52.920;6.536;2022-09-13T07:04:31;10.38;;;2.25;;
61015;SDS011;46902;52.920;6.536;2022-09-13T07:06:57;4.90;;;2.08;;
61015;SDS011;46902;52.920;6.536;2022-09-13T07:09:23;4.13;;;1.70;;
61015;SDS011;46902;52.920;6.536;2022-09-13T07:11:50;7.07;;;1.92;;
61015;SDS011;46902;52.920;6.536;2022-09-13T07:14:18;6.50;;;2.08;;
61015;SDS011;46902;52.920;6.536;2022-09-13T07:16:45;3.92;;;1.67;;
61015;SDS011;46902;52.920;6.536;2022-09-13T07:19:15;8.05;;;1.88;;
61015;SDS011;46902;52.920;6.536;2022-09-13T07:21:42;5.07;;;1.73;;
61015;SDS011;46902;52.920;6.536;2022-09-13T07:24:08;4.00;;;1.50;;
61015;SDS011;46902;52.920;6.536;2022-09-13T07:26:34;4.18;;;1.80;;
61015;SDS011;46902;52.920;6.536;2022-09-13T07:29:01;6.55;;;1.98;;
61015;SDS011;46902;52.920;6.536;2022-09-13T07:31:31;8.02;;;1.90;;
61015;SDS011;46902;52.920;6.536;2022-09-13T07:33:59;5.82;;;2.00;;
61015;SDS011;46902;52.920;6.536;2022-09-13T07:36:27;6.18;;;2.00;;
61015;SDS011;46902;52.920;6.536;2022-09-13T07:38:55;6.82;;;1.73;;
61015;SDS011;46902;52.920;6.536;2022-09-13T07:41:22;10.07;;;1.83;;
61015;SDS011;46902;52.920;6.536;2022-09-13T07:43:51;7.40;;;2.08;;
61015;SDS011;46902;52.920;6.536;2022-09-13T07:46:18;8.63;;;1.60;;
61015;SDS011;46902;52.920;6.536;2022-09-13T07:48:48;7.35;;;1.38;;
61015;SDS011;46902;52.920;6.536;2022-09-13T07:51:18;8.00;;;1.20;;
61015;SDS011;46902;52.920;6.536;2022-09-13T07:53:45;7.50;;;1.42;;
61015;SDS011;46902;52.920;6.536;2022-09-13T07:56:13;3.72;;;1.00;;
61015;SDS011;46902;52.920;6.536;2022-09-13T07:58:41;4.60;;;0.90;;
61015;SDS011;46902;52.920;6.536;2022-09-13T08:01:08;4.90;;;0.85;;
61015;SDS011;46902;52.920;6.536;2022-09-13T08:03:38;11.05;;;1.20;;
61015;SDS011;46902;52.920;6.536;2022-09-13T08:06:04;10.32;;;1.13;;
61015;SDS011;46902;52.920;6.536;2022-09-13T08:08:30;7.18;;;0.90;;
61015;SDS011;46902;52.920;6.536;2022-09-13T08:10:57;4.05;;;0.73;;
61015;SDS011;46902;52.920;6.536;2022-09-13T08:13:23;6.78;;;1.52;;
61015;SDS011;46902;52.920;6.536;2022-09-13T08:15:48;4.40;;;0.80;;
61015;SDS011;46902;52.920;6.536;2022-09-13T08:18:15;4.38;;;0.77;;
61015;SDS011;46902;52.920;6.536;2022-09-13T08:20:41;6.03;;;1.10;;
61015;SDS011;46902;52.920;6.536;2022-09-13T08:23:08;4.25;;;0.60;;
61015;SDS011;46902;52.920;6.536;2022-09-13T08:25:35;4.20;;;0.77;;
61015;SDS011;46902;52.920;6.536;2022-09-13T08:28:08;3.20;;;0.50;;
61015;SDS011;46902;52.920;6.536;2022-09-13T08:30:37;4.68;;;1.17;;
61015;SDS011;46902;52.920;6.536;2022-09-13T08:33:03;4.78;;;0.93;;
61015;SDS011;46902;52.920;6.536;2022-09-13T08:35:29;2.67;;;0.85;;
61015;SDS011;46902;52.920;6.536;2022-09-13T08:37:56;4.18;;;0.60;;
61015;SDS011;46902;52.920;6.536;2022-09-13T08:40:23;4.40;;;0.70;;
61015;SDS011;46902;52.920;6.536;2022-09-13T08:45:38;3.60;;;0.75;;
61015;SDS011;46902;52.920;6.536;2022-09-13T08:48:08;6.03;;;0.50;;
61015;SDS011;46902;52.920;6.536;2022-09-13T08:50:39;6.55;;;0.70;;
61015;SDS011;46902;52.920;6.536;2022-09-13T08:56:09;6.20;;;0.75;;
61015;SDS011;46902;52.920;6.536;2022-09-13T08:58:51;2.25;;;0.50;;
61015;SDS011;46902;52.920;6.536;2022-09-13T09:01:34;5.30;;;0.70;;
61015;SDS011;46902;52.920;6.536;2022-09-13T09:06:53;4.30;;;0.65;;
61015;SDS011;46902;52.920;6.536;2022-09-13T09:12:53;4.28;;;0.60;;
61015;SDS011;46902;52.920;6.536;2022-09-13T09:17:43;3.28;;;0.80;;
61015;SDS011;46902;52.920;6.536;2022-09-13T09:22:43;3.97;;;0.57;;
61015;SDS011;46902;52.920;6.536;2022-09-13T09:25:11;5.38;;;0.77;;
61015;SDS011;46902;52.920;6.536;2022-09-13T09:27:37;4.40;;;0.65;;
61015;SDS011;46902;52.920;6.536;2022-09-13T09:30:02;6.50;;;0.73;;
61015;SDS011;46902;52.920;6.536;2022-09-13T09:35:25;4.30;;;0.70;;
61015;SDS011;46902;52.920;6.536;2022-09-13T09:38:22;5.22;;;0.63;;
61015;SDS011;46902;52.920;6.536;2022-09-13T09:40:51;4.00;;;0.60;;
61015;SDS011;46902;52.920;6.536;2022-09-13T09:43:28;5.47;;;0.80;;
61015;SDS011;46902;52.920;6.536;2022-09-13T09:45:57;4.03;;;0.60;;
61015;SDS011;46902;52.920;6.536;2022-09-13T09:48:28;5.45;;;0.55;;
61015;SDS011;46902;52.920;6.536;2022-09-13T09:50:59;4.60;;;0.57;;
61015;SDS011;46902;52.920;6.536;2022-09-13T09:53:39;3.22;;;0.60;;
61015;SDS011;46902;52.920;6.536;2022-09-13T09:58:57;3.85;;;0.63;;
61015;SDS011;46902;52.920;6.536;2022-09-13T10:01:29;4.97;;;1.00;;
61015;SDS011;46902;52.920;6.536;2022-09-13T10:06:42;4.70;;;0.73;;
61015;SDS011;46902;52.920;6.536;2022-09-13T10:11:39;3.85;;;0.75;;
61015;SDS011;46902;52.920;6.536;2022-09-13T10:14:25;5.85;;;0.70;;
61015;SDS011;46902;52.920;6.536;2022-09-13T10:17:00;6.35;;;0.93;;
61015;SDS011;46902;52.920;6.536;2022-09-13T10:19:52;9.55;;;0.82;;
61015;SDS011;46902;52.920;6.536;2022-09-13T10:22:36;5.82;;;0.63;;
61015;SDS011;46902;52.920;6.536;2022-09-13T10:27:39;2.88;;;0.60;;
61015;SDS011;46902;52.920;6.536;2022-09-13T10:30:52;6.65;;;0.80;;
61015;SDS011;46902;52.920;6.536;2022-09-13T10:32:58;4.10;;;0.57;;
61015;SDS011;46902;52.920;6.536;2022-09-13T10:35:24;6.40;;;0.75;;
61015;SDS011;46902;52.920;6.536;2022-09-13T10:37:51;2.70;;;0.43;;
61015;SDS011;46902;52.920;6.536;2022-09-13T10:40:21;4.95;;;0.52;;
61015;SDS011;46902;52.920;6.536;2022-09-13T10:42:58;4.38;;;0.40;;
61015;SDS011;46902;52.920;6.536;2022-09-13T10:45:26;2.15;;;0.57;;
61015;SDS011;46902;52.920;6.536;2022-09-13T10:47:55;6.57;;;0.85;;
61015;SDS011;46902;52.920;6.536;2022-09-13T10:50:30;3.88;;;0.70;;
61015;SDS011;46902;52.920;6.536;2022-09-13T10:52:57;3.55;;;0.55;;
61015;SDS011;46902;52.920;6.536;2022-09-13T10:55:31;7.75;;;0.90;;
61015;SDS011;46902;52.920;6.536;2022-09-13T11:00:54;6.07;;;1.13;;
61015;SDS011;46902;52.920;6.536;2022-09-13T11:09:42;4.97;;;0.93;;
61015;SDS011;46902;52.920;6.536;2022-09-13T11:12:30;7.78;;;0.88;;
61015;SDS011;46902;52.920;6.536;2022-09-13T11:18:00;4.55;;;0.70;;
61015;SDS011;46902;52.920;6.536;2022-09-13T11:34:50;6.55;;;0.73;;
61015;SDS011;46902;52.920;6.536;2022-09-13T11:48:59;6.07;;;0.90;;
61015;SDS011;46902;52.920;6.536;2022-09-13T11:54:34;4.75;;;0.95;;
61015;SDS011;46902;52.920;6.536;2022-09-13T11:57:14;6.65;;;1.08;;
61015;SDS011;46902;52.920;6.536;2022-09-13T11:59:58;6.22;;;0.98;;
61015;SDS011;46902;52.920;6.536;2022-09-13T12:07:41;6.95;;;1.13;;
61015;SDS011;46902;52.920;6.536;2022-09-13T12:13:03;4.45;;;0.70;;
61015;SDS011;46902;52.920;6.536;2022-09-13T12:15:38;8.00;;;1.02;;
61015;SDS011;46902;52.920;6.536;2022-09-13T12:18:19;3.90;;;0.70;;
61015;SDS011;46902;52.920;6.536;2022-09-13T12:20:59;4.90;;;0.60;;
61015;SDS011;46902;52.920;6.536;2022-09-13T12:23:35;4.15;;;0.77;;
61015;SDS011;46902;52.920;6.536;2022-09-13T12:26:12;5.32;;;0.73;;
61015;SDS011;46902;52.920;6.536;2022-09-13T12:28:48;5.70;;;0.82;;
61015;SDS011;46902;52.920;6.536;2022-09-13T12:31:23;3.03;;;0.70;;
61015;SDS011;46902;52.920;6.536;2022-09-13T12:33:51;5.70;;;1.15;;
61015;SDS011;46902;52.920;6.536;2022-09-13T12:41:56;4.63;;;0.98;;
61015;SDS011;46902;52.920;6.536;2022-09-13T12:44:53;5.35;;;0.82;;
61015;SDS011;46902;52.920;6.536;2022-09-13T12:53:34;6.63;;;0.90;;
61015;SDS011;46902;52.920;6.536;2022-09-13T13:01:46;4.78;;;0.73;;
61015;SDS011;46902;52.920;6.536;2022-09-13T13:04:15;5.53;;;0.68;;
61015;SDS011;46902;52.920;6.536;2022-09-13T13:12:52;4.65;;;0.80;;
61015;SDS011;46902;52.920;6.536;2022-09-13T13:14:59;4.13;;;0.80;;
61015;SDS011;46902;52.920;6.536;2022-09-13T13:17:36;3.92;;;0.90;;
61015;SDS011;46902;52.920;6.536;2022-09-13T13:23:20;4.35;;;0.90;;
61015;SDS011;46902;52.920;6.536;2022-09-13T13:31:08;4.50;;;0.85;;
61015;SDS011;46902;52.920;6.536;2022-09-13T13:33:52;3.05;;;0.60;;
61015;SDS011;46902;52.920;6.536;2022-09-13T13:36:23;4.63;;;0.77;;
61015;SDS011;46902;52.920;6.536;2022-09-13T13:38:53;4.82;;;0.90;;
61015;SDS011;46902;52.920;6.536;2022-09-13T13:46:44;2.95;;;0.70;;
61015;SDS011;46902;52.920;6.536;2022-09-13T13:57:20;5.05;;;0.95;;
61015;SDS011;46902;52.920;6.536;2022-09-13T14:02:39;5.03;;;0.70;;
61015;SDS011;46902;52.920;6.536;2022-09-13T14:05:32;6.00;;;0.98;;
61015;SDS011;46902;52.920;6.536;2022-09-13T14:08:27;6.25;;;1.23;;
61015;SDS011;46902;52.920;6.536;2022-09-13T14:11:12;4.38;;;0.80;;
61015;SDS011;46902;52.920;6.536;2022-09-13T14:22:06;6.00;;;1.23;;
61015;SDS011;46902;52.920;6.536;2022-09-13T14:24:53;6.57;;;0.90;;
61015;SDS011;46902;52.920;6.536;2022-09-13T14:27:21;6.13;;;1.55;;
61015;SDS011;46902;52.920;6.536;2022-09-13T14:29:53;9.07;;;1.30;;
61015;SDS011;46902;52.920;6.536;2022-09-13T14:32:23;9.25;;;1.52;;
61015;SDS011;46902;52.920;6.536;2022-09-13T14:35:01;6.13;;;1.20;;
61015;SDS011;46902;52.920;6.536;2022-09-13T14:37:34;3.80;;;0.88;;
61015;SDS011;46902;52.920;6.536;2022-09-13T14:42:42;8.98;;;1.50;;
61015;SDS011;46902;52.920;6.536;2022-09-13T14:45:20;7.05;;;1.13;;
61015;SDS011;46902;52.920;6.536;2022-09-13T14:48:03;9.07;;;1.30;;
61015;SDS011;46902;52.920;6.536;2022-09-13T14:50:40;6.20;;;1.08;;
61015;SDS011;46902;52.920;6.536;2022-09-13T14:53:16;8.02;;;1.10;;
61015;SDS011;46902;52.920;6.536;2022-09-13T15:01:27;5.90;;;0.98;;
61015;SDS011;46902;52.920;6.536;2022-09-13T15:03:58;8.27;;;1.50;;
61015;SDS011;46902;52.920;6.536;2022-09-13T15:06:29;6.05;;;1.00;;
61015;SDS011;46902;52.920;6.536;2022-09-13T15:09:00;9.45;;;1.35;;
61015;SDS011;46902;52.920;6.536;2022-09-13T15:14:26;10.95;;;1.63;;
61015;SDS011;46902;52.920;6.536;2022-09-13T15:16:59;4.68;;;1.05;;
61015;SDS011;46902;52.920;6.536;2022-09-13T15:22:16;9.18;;;1.42;;
61015;SDS011;46902;52.920;6.536;2022-09-13T15:24:56;8.55;;;1.60;;
61015;SDS011;46902;52.920;6.536;2022-09-13T15:27:27;6.22;;;1.02;;
61015;SDS011;46902;52.920;6.536;2022-09-13T15:29:58;8.80;;;1.20;;
61015;SDS011;46902;52.920;6.536;2022-09-13T15:32:42;6.25;;;1.15;;
61015;SDS011;46902;52.920;6.536;2022-09-13T15:35:22;8.20;;;1.30;;
61015;SDS011;46902;52.920;6.536;2022-09-13T15:38:06;7.30;;;1.23;;
61015;SDS011;46902;52.920;6.536;2022-09-13T15:40:40;8.40;;;1.25;;
61015;SDS011;46902;52.920;6.536;2022-09-13T15:43:08;7.90;;;1.27;;
61015;SDS011;46902;52.920;6.536;2022-09-13T15:45:33;8.55;;;1.20;;
61015;SDS011;46902;52.920;6.536;2022-09-13T15:47:59;7.68;;;1.30;;
61015;SDS011;46902;52.920;6.536;2022-09-13T15:50:28;6.07;;;1.23;;
61015;SDS011;46902;52.920;6.536;2022-09-13T15:52:56;11.63;;;1.27;;
61015;SDS011;46902;52.920;6.536;2022-09-13T15:55:23;7.63;;;1.30;;
61015;SDS011;46902;52.920;6.536;2022-09-13T15:57:49;6.95;;;1.10;;
61015;SDS011;46902;52.920;6.536;2022-09-13T16:00:16;8.13;;;1.35;;
61015;SDS011;46902;52.920;6.536;2022-09-13T16:02:44;8.57;;;1.20;;
61015;SDS011;46902;52.920;6.536;2022-09-13T16:05:10;6.30;;;1.23;;
61015;SDS011;46902;52.920;6.536;2022-09-13T16:07:36;5.05;;;1.10;;
61015;SDS011;46902;52.920;6.536;2022-09-13T16:10:02;4.72;;;1.13;;
61015;SDS011;46902;52.920;6.536;2022-09-13T16:12:29;5.22;;;0.80;;
61015;SDS011;46902;52.920;6.536;2022-09-13T16:14:54;6.88;;;0.95;;
61015;SDS011;46902;52.920;6.536;2022-09-13T16:17:24;9.07;;;1.30;;
61015;SDS011;46902;52.920;6.536;2022-09-13T16:19:51;7.95;;;1.20;;
61015;SDS011;46902;52.920;6.536;2022-09-13T16:22:17;8.48;;;1.77;;
61015;SDS011;46902;52.920;6.536;2022-09-13T16:24:43;7.97;;;1.23;;
61015;SDS011;46902;52.920;6.536;2022-09-13T16:27:09;6.22;;;1.17;;
61015;SDS011;46902;52.920;6.536;2022-09-13T16:29:37;6.80;;;1.05;;
61015;SDS011;46902;52.920;6.536;2022-09-13T16:32:02;10.57;;;1.90;;
61015;SDS011;46902;52.920;6.536;2022-09-13T16:34:29;7.68;;;0.80;;
61015;SDS011;46902;52.920;6.536;2022-09-13T16:36:54;4.35;;;1.10;;
61015;SDS011;46902;52.920;6.536;2022-09-13T16:39:20;5.35;;;1.25;;
61015;SDS011;46902;52.920;6.536;2022-09-13T16:41:45;7.65;;;1.48;;
61015;SDS011;46902;52.920;6.536;2022-09-13T16:44:11;7.15;;;0.90;;
61015;SDS011;46902;52.920;6.536;2022-09-13T16:46:38;5.70;;;1.05;;
61015;SDS011;46902;52.920;6.536;2022-09-13T16:49:03;8.95;;;1.38;;
61015;SDS011;46902;52.920;6.536;2022-09-13T16:51:30;5.50;;;1.08;;
61015;SDS011;46902;52.920;6.536;2022-09-13T16:53:55;6.32;;;1.15;;
61015;SDS011;46902;52.920;6.536;2022-09-13T16:56:22;7.63;;;1.48;;
61015;SDS011;46902;52.920;6.536;2022-09-13T16:58:49;8.75;;;1.20;;
61015;SDS011;46902;52.920;6.536;2022-09-13T17:01:16;8.35;;;0.93;;
61015;SDS011;46902;52.920;6.536;2022-09-13T17:03:47;8.30;;;1.10;;
61015;SDS011;46902;52.920;6.536;2022-09-13T17:06:14;5.93;;;1.00;;
61015;SDS011;46902;52.920;6.536;2022-09-13T17:08:41;5.32;;;1.00;;
61015;SDS011;46902;52.920;6.536;2022-09-13T17:11:21;7.70;;;1.33;;
61015;SDS011;46902;52.920;6.536;2022-09-13T17:13:49;6.97;;;0.85;;
61015;SDS011;46902;52.920;6.536;2022-09-13T17:16:29;7.22;;;1.00;;
61015;SDS011;46902;52.920;6.536;2022-09-13T17:18:57;7.68;;;1.08;;
61015;SDS011;46902;52.920;6.536;2022-09-13T17:21:25;8.82;;;1.20;;
61015;SDS011;46902;52.920;6.536;2022-09-13T17:23:51;6.43;;;0.90;;
61015;SDS011;46902;52.920;6.536;2022-09-13T17:26:17;6.57;;;0.82;;
61015;SDS011;46902;52.920;6.536;2022-09-13T17:28:42;6.93;;;1.13;;
61015;SDS011;46902;52.920;6.536;2022-09-13T17:31:08;4.75;;;1.05;;
61015;SDS011;46902;52.920;6.536;2022-09-13T17:33:34;6.47;;;1.00;;
61015;SDS011;46902;52.920;6.536;2022-09-13T17:36:00;4.75;;;0.90;;
61015;SDS011;46902;52.920;6.536;2022-09-13T17:38:27;6.40;;;0.90;;
61015;SDS011;46902;52.920;6.536;2022-09-13T17:43:30;6.53;;;1.27;;
61015;SDS011;46902;52.920;6.536;2022-09-13T17:45:56;8.50;;;1.25;;
61015;SDS011;46902;52.920;6.536;2022-09-13T17:48:21;7.63;;;1.15;;
61015;SDS011;46902;52.920;6.536;2022-09-13T17:50:47;5.57;;;1.00;;
61015;SDS011;46902;52.920;6.536;2022-09-13T17:53:13;6.47;;;1.38;;
61015;SDS011;46902;52.920;6.536;2022-09-13T17:55:45;5.30;;;0.90;;
61015;SDS011;46902;52.920;6.536;2022-09-13T17:58:12;7.97;;;1.20;;
61015;SDS011;46902;52.920;6.536;2022-09-13T18:00:38;5.43;;;1.00;;
61015;SDS011;46902;52.920;6.536;2022-09-13T18:03:04;6.95;;;1.00;;
61015;SDS011;46902;52.920;6.536;2022-09-13T18:05:29;6.15;;;1.08;;
61015;SDS011;46902;52.920;6.536;2022-09-13T18:07:55;6.25;;;1.05;;
61015;SDS011;46902;52.920;6.536;2022-09-13T18:10:21;6.53;;;1.00;;
61015;SDS011;46902;52.920;6.536;2022-09-13T18:12:47;6.30;;;1.00;;
61015;SDS011;46902;52.920;6.536;2022-09-13T18:15:12;7.30;;;1.10;;
61015;SDS011;46902;52.920;6.536;2022-09-13T18:17:38;6.07;;;1.10;;
61015;SDS011;46902;52.920;6.536;2022-09-13T18:20:03;7.50;;;0.90;;
61015;SDS011;46902;52.920;6.536;2022-09-13T18:22:29;4.07;;;0.80;;
61015;SDS011;46902;52.920;6.536;2022-09-13T18:24:55;10.63;;;1.50;;
61015;SDS011;46902;52.920;6.536;2022-09-13T18:27:20;8.45;;;0.90;;